Time,TemperatureF,DewpointF,PressureIn,WindDirection,WindDirectionDegrees,WindSpeedMPH,WindSpeedGustMPH,Humidity,HourlyPrecipIn,Conditions,Clouds,dailyrainin,SolarRadiationWatts/m^2,SoftwareType,DateUTC
2013-04-21 00:03:00,57.0,42.0,-100.00,NNE,26,3.0,10.0,57,0.00,,,2.23,0.000000,,2013-04-21 04:03:00,
2013-04-21 00:12:00,57.0,42.0,-100.00,NNE,26,3.0,10.0,57,0.00,,,2.23,0.000000,,2013-04-21 04:12:00,
2013-04-21 00:23:00,57.0,42.0,-100.00,NNE,26,3.0,10.0,57,0.00,,,2.23,0.000000,,2013-04-21 04:23:00,
2013-04-21 00:53:00,57.0,42.0,-100.00,NNE,31,4.0,9.0,57,0.00,,,2.23,0.000000,,2013-04-21 04:53:00,
2013-04-21 01:02:00,57.0,42.0,-100.00,NNE,31,4.0,9.0,57,0.00,,,2.23,0.000000,,2013-04-21 05:02:00,
2013-04-21 01:12:00,57.0,42.0,-100.00,NNE,31,4.0,9.0,57,0.00,,,2.23,0.000000,,2013-04-21 05:12:00,
2013-04-21 01:22:00,57.0,42.0,-100.00,NNE,31,4.0,9.0,57,0.00,,,2.23,0.000000,,2013-04-21 05:22:00,
2013-04-21 01:52:00,57.0,42.0,-100.00,NE,53,4.0,11.0,58,0.00,,,2.23,0.000000,,2013-04-21 05:52:00,
2013-04-21 02:01:00,57.0,42.0,-100.00,NE,53,4.0,11.0,58,0.00,,,2.23,0.000000,,2013-04-21 06:01:00,
2013-04-21 02:12:00,57.0,42.0,-100.00,NE,53,4.0,11.0,58,0.00,,,2.23,0.000000,,2013-04-21 06:12:00,
2013-04-21 02:22:00,57.0,42.0,-100.00,NE,53,4.0,11.0,58,0.00,,,2.23,0.000000,,2013-04-21 06:22:00,
2013-04-21 02:52:00,56.0,43.0,-100.00,ENE,75,12.0,18.0,62,0.00,,,1.70,0.000000,,2013-04-21 06:52:00,
2013-04-21 03:02:00,56.0,43.0,-100.00,ENE,75,12.0,18.0,62,0.00,,,1.70,0.000000,,2013-04-21 07:02:00,
2013-04-21 03:12:00,56.0,43.0,-100.00,ENE,75,12.0,18.0,62,0.00,,,1.70,0.000000,,2013-04-21 07:12:00,
2013-04-21 03:22:00,56.0,43.0,-100.00,ENE,75,12.0,18.0,62,0.00,,,1.70,0.000000,,2013-04-21 07:22:00,
2013-04-21 03:52:00,56.0,42.0,-100.00,ENE,69,11.0,18.0,59,0.00,,,1.14,0.000000,,2013-04-21 07:52:00,
2013-04-21 04:02:00,56.0,42.0,-100.00,ENE,69,11.0,18.0,59,0.00,,,1.14,0.000000,,2013-04-21 08:02:00,
2013-04-21 04:12:00,56.0,42.0,-100.00,ENE,69,11.0,18.0,59,0.00,,,1.14,0.000000,,2013-04-21 08:12:00,
2013-04-21 04:22:00,56.0,42.0,-100.00,ENE,69,11.0,18.0,59,0.00,,,1.14,0.000000,,2013-04-21 08:22:00,
2013-04-21 04:52:00,57.0,41.0,-100.00,ENE,64,11.0,20.0,54,0.00,,,-99.99,0.000000,,2013-04-21 08:52:00,
2013-04-21 05:02:00,57.0,41.0,-100.00,ENE,64,11.0,20.0,54,0.00,,,-99.99,0.000000,,2013-04-21 09:02:00,
2013-04-21 05:12:00,57.0,41.0,-100.00,ENE,64,11.0,20.0,54,0.00,,,-99.99,0.000000,,2013-04-21 09:12:00,
2013-04-21 05:21:00,57.0,41.0,-100.00,ENE,64,11.0,20.0,54,0.00,,,-99.99,0.000000,,2013-04-21 09:21:00,
2013-04-21 05:53:00,58.0,40.0,-100.00,ENE,66,11.0,21.0,52,0.00,,,0.21,0.000000,,2013-04-21 09:53:00,
2013-04-21 06:03:00,58.0,40.0,-100.00,ENE,66,11.0,21.0,52,0.00,,,0.21,0.000000,,2013-04-21 10:03:00,
2013-04-21 06:12:00,58.0,40.0,-100.00,ENE,66,11.0,21.0,52,0.00,,,0.21,0.000000,,2013-04-21 10:12:00,
2013-04-21 06:22:00,58.0,40.0,-100.00,ENE,66,11.0,21.0,52,0.00,,,0.21,0.000000,,2013-04-21 10:22:00,
2013-04-21 06:52:00,58.0,40.0,-100.00,ENE,58,9.0,22.0,52,0.00,,,0.13,0.000000,,2013-04-21 10:52:00,
2013-04-21 07:03:00,58.0,40.0,-100.00,ENE,58,9.0,22.0,52,0.00,,,0.13,0.000000,,2013-04-21 11:03:00,
2013-04-21 07:12:00,58.0,40.0,-100.00,ENE,58,9.0,22.0,52,0.00,,,0.13,0.000000,,2013-04-21 11:12:00,
2013-04-21 07:22:00,58.0,40.0,-100.00,ENE,58,9.0,22.0,52,0.00,,,0.13,0.000000,,2013-04-21 11:22:00,
2013-04-21 07:52:00,59.0,42.0,-100.00,NE,48,8.0,22.0,54,0.00,,,0.03,50.000000,,2013-04-21 11:52:00,
2013-04-21 08:03:00,59.0,42.0,-100.00,NE,48,8.0,22.0,54,0.00,,,0.03,50.000000,,2013-04-21 12:03:00,
2013-04-21 08:12:00,59.0,42.0,-100.00,NE,48,8.0,22.0,54,0.00,,,0.03,50.000000,,2013-04-21 12:12:00,
2013-04-21 08:22:00,59.0,42.0,-100.00,NE,48,8.0,22.0,54,0.00,,,0.03,50.000000,,2013-04-21 12:22:00,
2013-04-21 08:52:00,59.0,43.0,-100.00,ENE,62,13.0,23.0,56,0.00,,,0.02,106.000000,,2013-04-21 12:52:00,
2013-04-21 09:01:00,59.0,43.0,-100.00,ENE,62,13.0,23.0,56,0.00,,,0.02,106.000000,,2013-04-21 13:01:00,
2013-04-21 09:12:00,59.0,43.0,-100.00,ENE,62,13.0,23.0,56,0.00,,,0.02,106.000000,,2013-04-21 13:12:00,
2013-04-21 09:22:00,59.0,43.0,-100.00,ENE,62,13.0,23.0,56,0.00,,,0.02,106.000000,,2013-04-21 13:22:00,
2013-04-21 09:52:00,59.0,43.0,-100.00,NE,52,9.0,24.0,56,0.00,,,0.00,126.000000,,2013-04-21 13:52:00,
2013-04-21 10:02:00,59.0,43.0,-100.00,NE,52,9.0,24.0,56,0.00,,,0.00,126.000000,,2013-04-21 14:02:00,
2013-04-21 10:11:00,59.0,43.0,-100.00,NE,52,9.0,24.0,56,0.00,,,0.00,126.000000,,2013-04-21 14:11:00,
2013-04-21 10:22:00,59.0,43.0,-100.00,NE,52,9.0,24.0,56,0.00,,,0.00,126.000000,,2013-04-21 14:22:00,
2013-04-21 10:52:00,60.0,44.0,-100.00,NE,45,9.0,23.0,56,0.00,,,0.00,605.000000,,2013-04-21 14:52:00,
2013-04-21 11:02:00,60.0,44.0,-100.00,NE,45,9.0,23.0,56,0.00,,,0.00,605.000000,,2013-04-21 15:02:00,
2013-04-21 11:11:00,60.0,44.0,-100.00,NE,45,9.0,23.0,56,0.00,,,0.00,605.000000,,2013-04-21 15:11:00,
2013-04-21 11:22:00,60.0,44.0,-100.00,NE,45,9.0,23.0,56,0.00,,,0.00,605.000000,,2013-04-21 15:22:00,
2013-04-21 11:53:00,60.0,43.0,-100.00,NE,49,9.0,22.0,53,0.00,,,0.00,808.000000,,2013-04-21 15:53:00,
2013-04-21 12:03:00,60.0,43.0,-100.00,NE,49,9.0,22.0,53,0.00,,,0.00,808.000000,,2013-04-21 16:03:00,
2013-04-21 12:13:00,60.0,43.0,-100.00,NE,49,9.0,22.0,53,0.00,,,0.00,808.000000,,2013-04-21 16:13:00,
2013-04-21 12:23:00,60.0,43.0,-100.00,NE,49,9.0,22.0,53,0.00,,,0.00,808.000000,,2013-04-21 16:23:00,
2013-04-21 12:53:00,60.0,44.0,-100.00,NE,46,9.0,23.0,55,0.00,,,0.00,899.000000,,2013-04-21 16:53:00,
2013-04-21 13:02:00,60.0,44.0,-100.00,NE,46,9.0,23.0,55,0.00,,,0.00,899.000000,,2013-04-21 17:02:00,
2013-04-21 13:12:00,60.0,44.0,-100.00,NE,46,9.0,23.0,55,0.00,,,0.00,899.000000,,2013-04-21 17:12:00,
2013-04-21 13:23:00,60.0,44.0,-100.00,NE,46,9.0,23.0,55,0.00,,,0.00,899.000000,,2013-04-21 17:23:00,
2013-04-21 13:52:00,60.0,43.0,-100.00,NE,53,8.0,22.0,54,0.00,,,0.00,959.000000,,2013-04-21 17:52:00,
2013-04-21 14:02:00,60.0,43.0,-100.00,NE,53,8.0,22.0,54,0.00,,,0.00,959.000000,,2013-04-21 18:02:00,
2013-04-21 14:11:00,60.0,43.0,-100.00,NE,53,8.0,22.0,54,0.00,,,0.00,959.000000,,2013-04-21 18:11:00,
2013-04-21 14:22:00,60.0,43.0,-100.00,NE,53,8.0,22.0,54,0.00,,,0.00,959.000000,,2013-04-21 18:22:00,
2013-04-21 14:52:00,59.0,43.0,-100.00,NE,45,9.0,21.0,55,0.00,,,0.00,926.000000,,2013-04-21 18:52:00,
2013-04-21 15:02:00,59.0,43.0,-100.00,NE,45,9.0,21.0,55,0.00,,,0.00,926.000000,,2013-04-21 19:02:00,
2013-04-21 15:12:00,59.0,43.0,-100.00,NE,45,9.0,21.0,55,0.00,,,0.00,926.000000,,2013-04-21 19:12:00,
2013-04-21 15:22:00,59.0,43.0,-100.00,NE,45,9.0,21.0,55,0.00,,,0.00,926.000000,,2013-04-21 19:22:00,
2013-04-21 15:52:00,59.0,42.0,-100.00,NE,42,9.0,27.0,53,0.00,,,0.00,815.000000,,2013-04-21 19:52:00,
2013-04-21 16:02:00,59.0,42.0,-100.00,NE,42,9.0,27.0,53,0.00,,,0.00,815.000000,,2013-04-21 20:02:00,
2013-04-21 16:11:00,59.0,42.0,-100.00,NE,42,9.0,27.0,53,0.00,,,0.00,815.000000,,2013-04-21 20:11:00,
2013-04-21 16:22:00,59.0,42.0,-100.00,NE,42,9.0,27.0,53,0.00,,,0.00,815.000000,,2013-04-21 20:22:00,
2013-04-21 16:52:00,58.0,42.0,-100.00,NE,53,9.0,23.0,55,0.00,,,0.00,678.000000,,2013-04-21 20:52:00,
2013-04-21 17:02:00,58.0,42.0,-100.00,NE,53,9.0,23.0,55,0.00,,,0.00,678.000000,,2013-04-21 21:02:00,
2013-04-21 17:12:00,58.0,42.0,-100.00,NE,53,9.0,23.0,55,0.00,,,0.00,678.000000,,2013-04-21 21:12:00,
2013-04-21 17:22:00,58.0,42.0,-100.00,NE,53,9.0,23.0,55,0.00,,,0.00,678.000000,,2013-04-21 21:22:00,
2013-04-21 17:53:00,57.0,41.0,-100.00,NE,46,9.0,20.0,55,0.00,,,0.00,406.000000,,2013-04-21 21:53:00,
2013-04-21 18:03:00,57.0,41.0,-100.00,NE,46,9.0,20.0,55,0.00,,,0.00,406.000000,,2013-04-21 22:03:00,
2013-04-21 18:12:00,57.0,41.0,-100.00,NE,46,9.0,20.0,55,0.00,,,0.00,406.000000,,2013-04-21 22:12:00,
2013-04-21 18:22:00,57.0,41.0,-100.00,NE,46,9.0,20.0,55,0.00,,,0.00,406.000000,,2013-04-21 22:22:00,
2013-04-21 18:53:00,55.0,39.0,-100.00,NE,46,8.0,21.0,55,0.00,,,0.00,67.000000,,2013-04-21 22:53:00,
2013-04-21 19:02:00,55.0,39.0,-100.00,NE,46,8.0,21.0,55,0.00,,,0.00,67.000000,,2013-04-21 23:02:00,
2013-04-21 19:12:00,55.0,39.0,-100.00,NE,46,8.0,21.0,55,0.00,,,0.00,67.000000,,2013-04-21 23:12:00,
2013-04-21 19:22:00,55.0,39.0,-100.00,NE,46,8.0,21.0,55,0.00,,,0.00,67.000000,,2013-04-21 23:22:00,
2013-04-21 19:52:00,53.0,39.0,-100.00,NNE,32,8.0,22.0,59,0.00,,,-99.99,65.000000,,2013-04-21 23:52:00,
2013-04-21 20:02:00,53.0,39.0,-100.00,NNE,32,8.0,22.0,59,0.00,,,-99.99,65.000000,,2013-04-22 00:02:00,
2013-04-21 20:12:00,53.0,39.0,-100.00,NNE,32,8.0,22.0,59,0.00,,,-99.99,65.000000,,2013-04-22 00:12:00,
2013-04-21 20:22:00,53.0,39.0,-100.00,NNE,32,8.0,22.0,59,0.00,,,-99.99,65.000000,,2013-04-22 00:22:00,
2013-04-21 20:52:00,52.0,39.0,-100.00,NE,38,8.0,21.0,61,0.00,,,0.00,4.000000,,2013-04-22 00:52:00,
2013-04-21 21:01:00,52.0,39.0,-100.00,NE,38,8.0,21.0,61,0.00,,,0.00,4.000000,,2013-04-22 01:01:00,
2013-04-21 21:12:00,52.0,39.0,-100.00,NE,38,8.0,21.0,61,0.00,,,0.00,4.000000,,2013-04-22 01:12:00,
2013-04-21 21:22:00,52.0,39.0,-100.00,NE,38,8.0,21.0,61,0.00,,,0.00,4.000000,,2013-04-22 01:22:00,
2013-04-21 21:52:00,53.0,41.0,-100.00,NNE,33,7.0,22.0,63,0.00,,,0.00,0.000000,,2013-04-22 01:52:00,
2013-04-21 22:02:00,53.0,41.0,-100.00,NNE,33,7.0,22.0,63,0.00,,,0.00,0.000000,,2013-04-22 02:02:00,
2013-04-21 22:12:00,53.0,41.0,-100.00,NNE,33,7.0,22.0,63,0.00,,,0.00,0.000000,,2013-04-22 02:12:00,
2013-04-21 22:22:00,53.0,41.0,-100.00,NNE,33,7.0,22.0,63,0.00,,,0.00,0.000000,,2013-04-22 02:22:00,
2013-04-21 22:52:00,53.0,41.0,-100.00,NNE,30,7.0,19.0,64,0.00,,,0.00,0.000000,,2013-04-22 02:52:00,
2013-04-21 23:02:00,53.0,41.0,-100.00,NNE,30,7.0,19.0,64,0.00,,,0.00,0.000000,,2013-04-22 03:02:00,
2013-04-21 23:11:00,53.0,41.0,-100.00,NNE,30,7.0,19.0,64,0.00,,,0.00,0.000000,,2013-04-22 03:11:00,
2013-04-21 23:22:00,53.0,41.0,-100.00,NNE,30,7.0,19.0,64,0.00,,,0.00,0.000000,,2013-04-22 03:22:00,
2013-04-21 23:53:00,53.0,42.0,-100.00,NE,36,6.0,18.0,66,0.00,,,0.00,0.000000,,2013-04-22 03:53:00,